createdAt,value
2018-12-22T00:01:38.407Z,92762.20
2018-12-22T00:04:15.668Z,92758.00
2018-12-22T00:06:53.330Z,92764.77
2018-12-22T00:09:29.601Z,92765.78
2018-12-22T00:12:06.018Z,92760.65
2018-12-22T00:14:44.610Z,92757.65
2018-12-22T00:17:20.514Z,92761.34
2018-12-22T00:19:56.651Z,92757.39
2018-12-22T00:22:32.653Z,92753.89
2018-12-22T00:25:09.111Z,92749.82
2018-12-22T00:27:48.923Z,92745.77
2018-12-22T00:30:27.127Z,92742.07
2018-12-22T00:33:03.046Z,92742.33
2018-12-22T00:35:39.060Z,92735.86
2018-12-22T00:38:19.806Z,92738.33
2018-12-22T00:40:56.254Z,92720.73
2018-12-22T00:43:32.543Z,92743.13
2018-12-22T00:46:08.889Z,92739.64
2018-12-22T00:48:45.580Z,92746.33
2018-12-22T00:51:21.665Z,92750.11
2018-12-22T00:53:58.012Z,92755.69
2018-12-22T00:56:34.105Z,92746.45
2018-12-22T00:59:10.173Z,92741.13
2018-12-22T01:01:46.527Z,92734.61
2018-12-22T01:04:22.871Z,92733.85
2018-12-22T01:14:02.436Z,92712.17
2018-12-22T01:16:38.644Z,92714.25
2018-12-22T01:19:14.989Z,92717.77
2018-12-22T01:21:51.845Z,92714.51
2018-12-22T01:24:29.997Z,92713.17
2018-12-22T01:28:29.613Z,92710.77
2018-12-22T01:31:06.986Z,92707.81
2018-12-22T01:33:44.333Z,92703.88
2018-12-22T01:36:20.842Z,92695.08
2018-12-22T01:38:57.651Z,92684.11
2018-12-22T01:41:34.549Z,92685.95
2018-12-22T01:44:11.672Z,92678.48
2018-12-22T01:46:48.436Z,92662.52
2018-12-22T01:49:26.505Z,92669.96
2018-12-22T01:52:03.958Z,92664.55
2018-12-22T01:54:40.450Z,92661.72
2018-12-22T01:57:16.580Z,92665.61
2018-12-22T01:59:52.849Z,92674.59
2018-12-22T02:02:29.459Z,92668.30
2018-12-22T02:05:07.190Z,92660.59
2018-12-22T02:07:43.488Z,92666.03
2018-12-22T02:10:19.688Z,92672.89
2018-12-22T02:12:56.274Z,92673.53
2018-12-22T02:15:33.036Z,92669.88
2018-12-22T02:18:10.847Z,92674.62
2018-12-22T02:20:47.282Z,92671.95
2018-12-22T02:23:24.046Z,92667.59
2018-12-22T02:26:00.521Z,92665.36
2018-12-22T02:28:37.041Z,92654.81
2018-12-22T02:31:13.666Z,92653.77
2018-12-22T02:33:50.070Z,92647.05
2018-12-22T02:36:26.944Z,92653.96
2018-12-22T02:39:03.475Z,92647.03
2018-12-22T02:41:39.934Z,92643.59
2018-12-22T02:44:16.671Z,92647.20
2018-12-22T02:46:53.263Z,92647.09
2018-12-22T02:49:29.593Z,92650.60
2018-12-22T02:52:05.946Z,92655.75
2018-12-22T02:54:42.316Z,92650.38
2018-12-22T02:57:19.415Z,92651.03
2018-12-22T02:59:55.847Z,92645.14
2018-12-22T03:02:32.138Z,92655.20
2018-12-22T03:05:08.653Z,92646.30
2018-12-22T03:07:45.102Z,92641.61
2018-12-22T03:10:21.893Z,92644.16
2018-12-22T03:12:58.392Z,92636.84
2018-12-22T03:15:35.036Z,92637.75
2018-12-22T03:18:11.982Z,92635.80
2018-12-22T03:20:48.668Z,92636.92
2018-12-22T03:23:25.181Z,92632.97
2018-12-22T03:26:01.543Z,92623.05
2018-12-22T03:28:37.783Z,92623.77
2018-12-22T03:31:14.489Z,92630.23
2018-12-22T03:33:50.700Z,92620.75
2018-12-22T03:36:27.212Z,92633.78
2018-12-22T03:39:03.875Z,92633.16
2018-12-22T03:41:40.237Z,92641.01
2018-12-22T03:44:16.546Z,92638.97
2018-12-22T03:46:53.298Z,92639.09
2018-12-22T03:49:29.847Z,92636.83
2018-12-22T03:52:06.561Z,92636.22
2018-12-22T03:54:43.153Z,92634.12
2018-12-22T03:57:20.027Z,92632.75
2018-12-22T03:59:56.825Z,92638.72
2018-12-22T04:02:33.958Z,92643.84
2018-12-22T04:05:21.868Z,92643.80
2018-12-22T04:07:59.687Z,92644.24
2018-12-22T04:10:36.262Z,92643.78
2018-12-22T04:13:12.675Z,92629.67
2018-12-22T04:15:52.764Z,92625.97
2018-12-22T04:18:29.036Z,92615.02
2018-12-22T04:21:05.311Z,92626.69
2018-12-22T04:23:41.759Z,92630.61
2018-12-22T04:26:17.792Z,92630.68
2018-12-22T04:28:54.059Z,92632.13
2018-12-22T04:31:30.493Z,92637.34
2018-12-22T04:34:06.743Z,92625.84
2018-12-22T04:36:43.018Z,92624.82
2018-12-22T04:39:19.432Z,92617.55
2018-12-22T04:41:55.435Z,92623.37
2018-12-22T04:44:31.907Z,92624.14
2018-12-22T04:47:07.982Z,92614.53
2018-12-22T04:49:44.348Z,92611.32
2018-12-22T04:52:20.582Z,92611.14
2018-12-22T04:54:56.942Z,92612.38
2018-12-22T04:57:33.061Z,92603.23
2018-12-22T05:00:11.148Z,92602.13
2018-12-22T05:02:47.716Z,92603.02
2018-12-22T05:05:24.729Z,92604.80
2018-12-22T05:08:01.217Z,92608.78
2018-12-22T05:10:38.788Z,92606.11
2018-12-22T05:13:15.817Z,92611.52
2018-12-22T05:15:52.855Z,92612.25
2018-12-22T05:18:29.823Z,92623.44
2018-12-22T05:21:06.353Z,92622.06
2018-12-22T05:23:42.804Z,92630.30
2018-12-22T05:26:20.229Z,92615.67
2018-12-22T05:28:56.764Z,92611.42
2018-12-22T05:31:35.291Z,92610.84
2018-12-22T05:34:11.613Z,92614.55
2018-12-22T05:36:48.132Z,92605.31
2018-12-22T05:39:24.294Z,92608.77
2018-12-22T05:42:00.675Z,92613.86
2018-12-22T05:44:36.999Z,92599.10
2018-12-22T05:47:13.409Z,92600.67
2018-12-22T05:49:49.840Z,92607.02
2018-12-22T05:52:29.655Z,92610.33
2018-12-22T05:58:29.637Z,92613.65
2018-12-22T06:01:06.894Z,92615.28
2018-12-22T06:03:43.073Z,92607.00
2018-12-22T06:06:19.865Z,92610.80
2018-12-22T06:08:56.083Z,92617.67
2018-12-22T06:11:32.398Z,92614.94
2018-12-22T06:14:08.650Z,92615.88
2018-12-22T06:16:44.843Z,92620.22
2018-12-22T06:19:20.950Z,92618.80
2018-12-22T06:21:56.971Z,92635.35
2018-12-22T06:24:33.737Z,92635.73
2018-12-22T06:27:09.671Z,92643.07
2018-12-22T06:29:45.821Z,92650.27
2018-12-22T06:32:21.794Z,92646.77
2018-12-22T06:34:58.232Z,92647.47
2018-12-22T06:37:34.259Z,92639.19
2018-12-22T06:40:10.344Z,92647.39
2018-12-22T06:42:48.226Z,92638.75
2018-12-22T06:45:24.938Z,92647.88
2018-12-22T06:48:00.930Z,92643.32
2018-12-22T06:50:37.173Z,92650.92
2018-12-22T06:53:13.050Z,92654.25
2018-12-22T06:55:49.201Z,92659.74
2018-12-22T06:58:25.169Z,92640.05
2018-12-22T07:01:01.926Z,92648.76
2018-12-22T07:03:37.884Z,92631.36
2018-12-22T07:06:14.207Z,92620.00
2018-12-22T07:08:50.529Z,92612.64
2018-12-22T07:11:27.129Z,92618.32
2018-12-22T07:14:05.605Z,92634.00
2018-12-22T07:16:42.074Z,92625.58
2018-12-22T07:19:18.325Z,92646.35
2018-12-22T07:21:54.354Z,92648.95
2018-12-22T07:24:30.415Z,92637.67
2018-12-22T07:27:06.934Z,92641.39
2018-12-22T07:29:45.994Z,92656.75
2018-12-22T07:32:22.298Z,92656.16
2018-12-22T07:34:58.317Z,92668.31
2018-12-22T07:37:34.426Z,92664.06
2018-12-22T07:40:10.414Z,92670.07
2018-12-22T07:42:46.598Z,92669.95
2018-12-22T07:45:22.861Z,92681.73
2018-12-22T07:47:59.382Z,92678.53
2018-12-22T07:50:35.678Z,92683.73
2018-12-22T07:53:11.901Z,92660.58
2018-12-22T07:55:53.946Z,92655.59
2018-12-22T07:58:30.365Z,92664.34
2018-12-22T08:01:06.397Z,92674.92
2018-12-22T08:03:42.451Z,92683.73
2018-12-22T08:06:18.419Z,92684.91
2018-12-22T08:08:55.225Z,92684.02
2018-12-22T08:11:32.031Z,92685.10
2018-12-22T08:14:07.897Z,92686.25
2018-12-22T08:16:43.911Z,92687.09
2018-12-22T08:19:19.982Z,92678.47
2018-12-22T08:21:56.048Z,92671.65
2018-12-22T08:24:32.131Z,92656.39
2018-12-22T08:27:08.130Z,92658.70
2018-12-22T08:32:23.154Z,92679.64
2018-12-22T08:35:01.549Z,92663.21
2018-12-22T08:37:46.200Z,92672.31
2018-12-22T08:40:29.953Z,92678.93
2018-12-22T08:43:11.880Z,92681.92
2018-12-22T08:45:54.708Z,92672.33
2018-12-22T08:48:35.941Z,92670.41
2018-12-22T08:51:18.725Z,92665.69
2018-12-22T08:54:00.732Z,92660.17
2018-12-22T08:56:43.106Z,92657.76
2018-12-22T08:59:37.082Z,92655.11
2018-12-22T09:02:22.808Z,92652.10
2018-12-22T09:05:06.366Z,92656.28
2018-12-22T09:07:48.015Z,92650.91
2018-12-22T09:10:29.776Z,92642.88
2018-12-22T09:13:20.656Z,92629.66
2018-12-22T09:15:58.594Z,92628.58
2018-12-22T09:18:40.375Z,92610.14
2018-12-22T09:21:22.914Z,92605.85
2018-12-22T09:24:05.647Z,92596.00
2018-12-22T09:26:48.868Z,92590.11
2018-12-22T09:29:31.280Z,92585.42
2018-12-22T09:32:12.667Z,92599.96
2018-12-22T09:34:54.404Z,92590.47
2018-12-22T09:37:36.116Z,92578.50
2018-12-22T09:40:20.453Z,92574.25
2018-12-22T09:43:02.615Z,92564.91
2018-12-22T09:46:09.170Z,92559.11
2018-12-22T09:49:03.152Z,92545.74
2018-12-22T09:51:45.103Z,92532.24
2018-12-22T09:54:27.215Z,92542.06
2018-12-22T09:57:09.254Z,92534.84
2018-12-22T09:59:50.852Z,92523.91
2018-12-22T10:02:32.455Z,92521.68
2018-12-22T10:05:14.349Z,92524.39
2018-12-22T10:07:56.212Z,92529.36
2018-12-22T10:10:37.815Z,92522.95
2018-12-22T10:13:19.491Z,92517.63
2018-12-22T10:16:01.036Z,92506.47
2018-12-22T10:18:42.879Z,92493.13
2018-12-22T10:21:24.554Z,92496.75
2018-12-22T10:24:06.419Z,92496.46
2018-12-22T10:26:48.137Z,92481.60
2018-12-22T10:30:54.565Z,92473.77
2018-12-22T10:33:36.381Z,92473.38
2018-12-22T10:36:18.154Z,92480.08
2018-12-22T10:38:59.695Z,92478.88
2018-12-22T10:41:41.613Z,92469.95
2018-12-22T10:44:23.344Z,92468.33
2018-12-22T10:47:05.042Z,92474.17
2018-12-22T10:49:46.676Z,92469.34
2018-12-22T10:52:28.377Z,92475.93
2018-12-22T10:55:13.111Z,92460.30
2018-12-22T10:57:55.029Z,92458.36
2018-12-22T11:00:36.335Z,92455.86
2018-12-22T11:03:18.131Z,92451.68
2018-12-22T11:05:59.801Z,92445.83
2018-12-22T11:08:41.849Z,92444.62
2018-12-22T11:11:23.410Z,92439.92
2018-12-22T11:14:05.273Z,92442.28
2018-12-22T11:16:46.723Z,92439.78
2018-12-22T11:19:28.273Z,92434.26
2018-12-22T11:22:09.864Z,92428.33
2018-12-22T11:24:51.754Z,92428.19
2018-12-22T11:27:33.408Z,92432.23
2018-12-22T11:30:36.069Z,92433.08
2018-12-22T11:33:25.072Z,92431.55
2018-12-22T11:36:06.869Z,92423.13
2018-12-22T11:38:48.381Z,92420.45
2018-12-22T11:41:36.259Z,92414.90
2018-12-22T11:44:23.096Z,92414.55
2018-12-22T11:47:26.838Z,92411.91
2018-12-22T11:50:29.795Z,92399.48
2018-12-22T11:53:11.431Z,92397.98
2018-12-22T11:55:53.062Z,92395.06
2018-12-22T11:58:34.665Z,92386.16
2018-12-22T12:01:16.527Z,92390.95
2018-12-22T12:03:58.162Z,92388.45
2018-12-22T12:06:39.797Z,92391.28
2018-12-22T12:09:21.872Z,92382.27
2018-12-22T12:12:03.453Z,92375.20
2018-12-22T12:14:45.139Z,92375.81
2018-12-22T12:17:37.719Z,92364.52
2018-12-22T12:20:19.443Z,92361.56
2018-12-22T12:23:01.120Z,92363.20
2018-12-22T12:25:42.775Z,92359.69
2018-12-22T12:28:24.253Z,92350.34
2018-12-22T12:31:06.131Z,92351.20
2018-12-22T12:33:47.813Z,92340.81
2018-12-22T12:36:29.654Z,92340.27
2018-12-22T12:39:14.018Z,92340.54
2018-12-22T12:41:55.927Z,92348.61
2018-12-22T12:44:42.251Z,92345.52
2018-12-22T12:47:24.470Z,92355.69
2018-12-22T12:50:07.646Z,92360.43
2018-12-22T12:52:48.869Z,92357.92
2018-12-22T12:55:30.615Z,92361.63
2018-12-22T12:58:12.336Z,92357.97
2018-12-22T13:00:53.909Z,92359.58
2018-12-22T13:03:35.735Z,92366.86
2018-12-22T13:06:18.803Z,92367.72
2018-12-22T13:09:07.102Z,92349.20
2018-12-22T13:11:50.242Z,92354.48
2018-12-22T13:14:31.790Z,92357.93
2018-12-22T13:17:13.483Z,92356.20
2018-12-22T13:19:55.347Z,92349.80
2018-12-22T13:22:37.018Z,92364.65
2018-12-22T13:25:18.850Z,92360.08
2018-12-22T13:28:00.690Z,92354.69
2018-12-22T13:30:42.376Z,92339.90
2018-12-22T13:33:24.568Z,92339.16
2018-12-22T13:36:06.115Z,92341.75
2018-12-22T13:38:53.069Z,92336.06
2018-12-22T13:41:36.856Z,92345.59
2018-12-22T13:44:18.473Z,92347.09
2018-12-22T13:46:59.999Z,92344.39
2018-12-22T13:49:35.881Z,92349.42
2018-12-22T13:52:12.738Z,92342.54
2018-12-22T13:54:49.678Z,92337.44
2018-12-22T13:57:26.487Z,92349.66
2018-12-22T14:00:03.806Z,92348.63
2018-12-22T14:02:40.999Z,92352.69
2018-12-22T14:05:20.305Z,92357.38
2018-12-22T14:07:56.493Z,92363.55
2018-12-22T14:10:33.422Z,92363.33
2018-12-22T14:13:10.242Z,92373.44
2018-12-22T14:15:52.832Z,92373.91
2018-12-22T14:18:41.664Z,92380.16
2018-12-22T14:21:18.124Z,92391.81
2018-12-22T14:24:17.362Z,92392.38
2018-12-22T14:26:53.498Z,92382.80
2018-12-22T14:29:30.671Z,92378.10
2018-12-22T14:32:06.996Z,92373.81
2018-12-22T14:34:47.625Z,92377.80
2018-12-22T14:37:24.764Z,92387.45
2018-12-22T14:40:01.614Z,92385.47
2018-12-22T14:42:38.485Z,92383.44
2018-12-22T14:45:15.323Z,92387.25
2018-12-22T14:47:51.971Z,92388.91
2018-12-22T14:50:28.992Z,92388.55
2018-12-22T14:53:06.478Z,92393.07
2018-12-22T14:55:42.646Z,92390.31
2018-12-22T14:58:23.415Z,92388.88
2018-12-22T15:01:00.860Z,92387.25
2018-12-22T15:03:37.298Z,92387.98
2018-12-22T15:06:14.169Z,92389.00
2018-12-22T15:08:50.851Z,92389.25
2018-12-22T15:11:27.560Z,92382.10
2018-12-22T15:14:04.440Z,92377.52
2018-12-22T15:16:41.679Z,92374.47
2018-12-22T15:19:18.226Z,92362.08
2018-12-22T15:21:58.502Z,92379.34
2018-12-22T15:24:35.133Z,92382.87
2018-12-22T15:27:12.028Z,92384.52
2018-12-22T15:29:48.603Z,92389.99
2018-12-22T15:32:25.643Z,92379.33
2018-12-22T15:35:02.541Z,92371.27
2018-12-22T15:37:39.381Z,92372.42
2018-12-22T15:40:16.029Z,92366.46
2018-12-22T15:42:52.972Z,92376.06
2018-12-22T15:45:29.764Z,92379.59
2018-12-22T15:48:06.722Z,92378.78
2018-12-22T15:50:44.166Z,92373.81
2018-12-22T15:53:21.589Z,92375.41
2018-12-22T15:55:59.394Z,92375.41
2018-12-22T15:58:36.383Z,92372.54
2018-12-22T16:01:13.577Z,92372.98
2018-12-22T16:03:50.435Z,92371.22
2018-12-22T16:06:26.870Z,92375.70
2018-12-22T16:09:05.370Z,92384.59
2018-12-22T16:11:42.390Z,92383.92
2018-12-22T16:14:19.178Z,92384.79
2018-12-22T16:16:56.054Z,92384.24
2018-12-22T16:19:34.610Z,92379.22
2018-12-22T16:22:10.675Z,92380.54
2018-12-22T16:24:47.646Z,92382.92
2018-12-22T16:27:28.686Z,92378.94
2018-12-22T16:30:12.595Z,92381.05
2018-12-22T16:32:49.412Z,92380.73
2018-12-22T16:35:26.427Z,92383.66
2018-12-22T16:38:03.421Z,92384.42
2018-12-22T16:40:39.965Z,92383.46
2018-12-22T16:43:17.712Z,92389.93
2018-12-22T16:45:54.355Z,92403.19
2018-12-22T16:48:32.188Z,92403.91
2018-12-22T16:51:10.807Z,92405.08
2018-12-22T16:53:47.613Z,92414.12
2018-12-22T16:56:25.003Z,92410.70
2018-12-22T16:59:02.058Z,92415.37
2018-12-22T17:01:57.978Z,92420.64
2018-12-22T17:04:34.521Z,92419.49
2018-12-22T17:07:11.526Z,92409.42
2018-12-22T17:09:48.374Z,92395.81
2018-12-22T17:12:24.687Z,92386.47
2018-12-22T17:15:01.592Z,92389.69
2018-12-22T17:17:38.547Z,92384.25
2018-12-22T17:20:15.277Z,92383.23
2018-12-22T17:23:05.031Z,92383.88
2018-12-22T17:25:47.575Z,92388.37
2018-12-22T17:28:28.180Z,92380.59
2018-12-22T17:31:04.807Z,92396.39
2018-12-22T17:33:41.440Z,92402.52
2018-12-22T17:36:18.716Z,92413.53
2018-12-22T17:38:55.119Z,92414.16
2018-12-22T17:41:31.794Z,92417.66
2018-12-22T17:44:08.754Z,92409.25
2018-12-22T17:46:45.475Z,92402.58
2018-12-22T17:49:21.909Z,92395.22
2018-12-22T17:51:59.285Z,92386.89
2018-12-22T17:54:36.821Z,92393.14
2018-12-22T17:57:14.398Z,92390.06
2018-12-22T17:59:52.843Z,92391.05
2018-12-22T18:02:31.531Z,92375.73
2018-12-22T18:05:08.998Z,92391.39
2018-12-22T18:07:46.494Z,92390.49
2018-12-22T18:10:23.996Z,92388.08
2018-12-22T18:13:00.219Z,92394.20
2018-12-22T18:15:38.684Z,92402.23
2018-12-22T18:18:16.904Z,92397.86
2018-12-22T18:20:53.954Z,92390.27
2018-12-22T18:23:30.950Z,92387.61
2018-12-22T18:26:07.815Z,92389.89
2018-12-22T18:28:44.548Z,92390.84
2018-12-22T18:31:20.652Z,92386.37
2018-12-22T18:33:57.434Z,92390.18
2018-12-22T18:36:34.261Z,92390.06
2018-12-22T18:39:11.024Z,92387.05
2018-12-22T18:41:47.806Z,92389.73
2018-12-22T18:44:24.702Z,92385.64
2018-12-22T18:47:01.602Z,92383.83
2018-12-22T18:49:37.968Z,92391.95
2018-12-22T18:52:14.781Z,92398.33
2018-12-22T18:54:51.478Z,92396.39
2018-12-22T18:57:28.297Z,92399.44
2018-12-22T19:00:09.944Z,92400.74
2018-12-22T19:02:46.090Z,92393.44
2018-12-22T19:05:23.422Z,92379.67
2018-12-22T19:08:04.722Z,92385.27
2018-12-22T19:10:46.674Z,92378.77
2018-12-22T19:13:22.925Z,92380.95
2018-12-22T19:15:59.639Z,92382.06
2018-12-22T19:18:36.673Z,92390.36
2018-12-22T19:21:13.309Z,92391.20
2018-12-22T19:23:50.210Z,92390.95
2018-12-22T19:26:28.444Z,92393.66
2018-12-22T19:29:05.545Z,92385.61
2018-12-22T19:31:42.315Z,92393.50
2018-12-22T19:34:18.958Z,92393.39
2018-12-22T19:36:55.783Z,92385.22
2018-12-22T19:39:32.402Z,92383.98
2018-12-22T19:42:09.225Z,92371.98
2018-12-22T19:44:45.973Z,92390.00
2018-12-22T19:47:22.836Z,92385.59
2018-12-22T19:49:58.977Z,92392.31
2018-12-22T19:52:35.848Z,92387.03
2018-12-22T19:56:37.007Z,92385.47
2018-12-22T19:59:13.953Z,92388.91
2018-12-22T20:01:50.853Z,92383.33
2018-12-22T20:04:27.594Z,92380.30
2018-12-22T20:07:04.721Z,92360.95
2018-12-22T20:09:41.551Z,92364.86
2018-12-22T20:12:18.368Z,92365.27
2018-12-22T20:14:55.232Z,92362.07
2018-12-22T20:17:31.336Z,92370.89
2018-12-22T20:20:08.993Z,92372.69
2018-12-22T20:22:45.091Z,92379.72
2018-12-22T20:25:22.873Z,92367.48
2018-12-22T20:27:59.668Z,92371.59
2018-12-22T20:30:36.553Z,92374.48
2018-12-22T20:33:14.645Z,92389.95
2018-12-22T20:35:53.057Z,92404.00
2018-12-22T20:38:29.934Z,92400.25
2018-12-22T20:41:08.048Z,92397.72
2018-12-22T20:43:46.565Z,92401.20
2018-12-22T20:46:25.166Z,92390.52
2018-12-22T20:49:04.220Z,92396.50
2018-12-22T20:51:43.759Z,92393.59
2018-12-22T20:54:23.569Z,92398.58
2018-12-22T20:57:03.039Z,92408.53
2018-12-22T21:01:12.577Z,92404.55
2018-12-22T21:03:57.796Z,92402.61
2018-12-22T21:06:44.215Z,92386.68
2018-12-22T21:09:30.197Z,92381.45
2018-12-22T21:12:14.778Z,92375.27
2018-12-22T21:14:59.417Z,92383.44
2018-12-22T21:17:46.606Z,92393.66
2018-12-22T21:20:31.046Z,92389.92
2018-12-22T21:23:16.186Z,92378.40
2018-12-22T21:26:01.920Z,92373.80
2018-12-22T21:28:47.306Z,92366.94
2018-12-22T21:31:31.303Z,92363.83
2018-12-22T21:34:16.195Z,92367.81
2018-12-22T21:37:03.255Z,92359.53
2018-12-22T21:39:47.756Z,92365.03
2018-12-22T21:42:30.126Z,92365.13
2018-12-22T21:45:12.937Z,92369.27
2018-12-22T21:47:56.990Z,92371.44
2018-12-22T21:50:40.178Z,92369.28
2018-12-22T21:53:22.688Z,92360.98
2018-12-22T21:56:04.917Z,92364.00
2018-12-22T21:58:46.612Z,92371.66
2018-12-22T22:01:28.392Z,92362.91
2018-12-22T22:04:09.981Z,92365.66
2018-12-22T22:06:52.054Z,92358.46
2018-12-22T22:09:33.572Z,92360.61
2018-12-22T22:12:15.632Z,92361.17
2018-12-22T22:14:57.264Z,92373.33
2018-12-22T22:19:03.572Z,92374.31
2018-12-22T22:21:46.216Z,92385.00
2018-12-22T22:24:28.247Z,92374.19
2018-12-22T22:27:10.451Z,92372.59
2018-12-22T22:29:53.062Z,92365.61
2018-12-22T22:32:35.014Z,92358.63
2018-12-22T22:35:16.779Z,92357.29
2018-12-22T22:37:58.833Z,92357.12
2018-12-22T22:40:40.361Z,92347.27
2018-12-22T22:43:23.419Z,92351.46
2018-12-22T22:46:05.211Z,92347.13
2018-12-22T22:48:46.533Z,92344.72
2018-12-22T22:51:28.375Z,92330.03
2018-12-22T22:54:10.279Z,92321.11
2018-12-22T22:56:52.065Z,92317.19
2018-12-22T22:59:33.798Z,92331.73
2018-12-22T23:02:16.810Z,92328.31
2018-12-22T23:04:58.938Z,92319.06
2018-12-22T23:07:40.350Z,92318.58
2018-12-22T23:10:21.833Z,92324.98
2018-12-22T23:13:03.552Z,92323.46
2018-12-22T23:33:43.340Z,92329.38
2018-12-22T23:39:31.631Z,92336.91
2018-12-22T23:42:14.226Z,92339.31
2018-12-22T23:44:57.424Z,92345.06
2018-12-22T23:47:39.648Z,92328.71
2018-12-22T23:50:22.595Z,92326.84
2018-12-22T23:53:07.464Z,92333.45
2018-12-22T23:55:49.716Z,92334.65
2018-12-22T23:58:32.522Z,92346.17
